Time;durP1;ratioP1;P1;durP2;ratioP2;P2;SDS_P1;SDS_P2;PMS_P1;PMS_P2;Temp;Humidity;BMP_temperature;BMP_pressure;BME280_temperature;BME280_humidity;BME280_pressure;Samples;Min_cycle;Max_cycle;Signal;HPM_P1;HPM_P2
2022/10/10 00:00:34;;;;;;;5.15;2.80;;;7.80;99.90;;;;;;4931521;29;20638;-81
2022/10/10 00:03:00;;;;;;;6.05;2.97;;;7.80;99.90;;;;;;4949276;28;20050;-81
2022/10/10 00:05:25;;;;;;;4.32;2.55;;;7.70;99.90;;;;;;4934578;29;20043;-82
2022/10/10 00:07:51;;;;;;;5.43;2.63;;;7.70;99.90;;;;;;4943399;28;20696;-80
2022/10/10 00:10:16;;;;;;;6.40;3.35;;;7.70;99.90;;;;;;4931955;29;20043;-80
2022/10/10 00:12:42;;;;;;;8.20;2.80;;;7.60;99.90;;;;;;4915227;29;20043;-80
2022/10/10 00:15:09;;;;;;;7.32;3.13;;;7.60;99.90;;;;;;4918592;29;20050;-81
2022/10/10 00:17:35;;;;;;;7.68;3.10;;;7.60;99.90;;;;;;4946935;28;20099;-80
2022/10/10 00:20:01;;;;;;;7.68;2.75;;;7.60;99.90;;;;;;4918506;29;20503;-80
2022/10/10 00:22:26;;;;;;;7.95;3.08;;;7.50;99.90;;;;;;4934884;29;20403;-81
2022/10/10 00:24:52;;;;;;;5.32;3.22;;;7.50;99.90;;;;;;4947505;28;20035;-80
2022/10/10 00:27:17;;;;;;;7.82;3.42;;;7.50;99.90;;;;;;4945764;28;20091;-80
2022/10/10 00:29:43;;;;;;;5.40;3.13;;;7.40;99.90;;;;;;4944621;28;20128;-80
2022/10/10 00:32:08;;;;;;;7.55;3.55;;;7.40;99.90;;;;;;4931619;29;20048;-81
2022/10/10 00:34:34;;;;;;;5.35;3.00;;;7.40;99.90;;;;;;4929427;29;20050;-81
2022/10/10 00:36:59;;;;;;;6.18;3.38;;;7.40;99.90;;;;;;4898999;29;20500;-81
2022/10/10 00:39:25;;;;;;;6.07;3.58;;;7.40;99.90;;;;;;4927423;29;20093;-82
2022/10/10 00:41:50;;;;;;;6.72;3.22;;;7.40;99.90;;;;;;4932397;29;20097;-81
2022/10/10 00:44:16;;;;;;;5.07;3.17;;;7.40;99.90;;;;;;4947094;28;20384;-81
2022/10/10 00:46:42;;;;;;;6.60;3.20;;;7.30;99.90;;;;;;4914972;29;20405;-81
2022/10/10 00:49:16;;;;;;;4.28;3.00;;;7.30;99.90;;;;;;4934392;29;20043;-81
2022/10/10 00:51:44;;;;;;;6.43;3.20;;;7.30;99.90;;;;;;4915417;29;20168;-81
2022/10/10 00:54:11;;;;;;;5.25;3.35;;;7.30;99.90;;;;;;4922674;29;20070;-82
2022/10/10 00:56:42;;;;;;;6.38;2.88;;;7.30;99.90;;;;;;4917298;29;20031;-80
2022/10/10 00:59:11;;;;;;;5.40;3.42;;;7.30;99.90;;;;;;4935146;29;20044;-81
2022/10/10 01:01:38;;;;;;;5.43;3.60;;;7.30;99.90;;;;;;4926261;29;20051;-81
2022/10/10 01:04:03;;;;;;;3.42;2.70;;;7.30;99.90;;;;;;4913644;29;20051;-80
2022/10/10 01:06:29;;;;;;;5.00;2.80;;;7.30;99.90;;;;;;4913588;29;20044;-80
2022/10/10 01:08:56;;;;;;;5.53;3.28;;;7.30;99.90;;;;;;4947705;28;20070;-80
2022/10/10 01:11:43;;;;;;;4.57;3.10;;;7.20;99.90;;;;;;4915131;29;20408;-80
2022/10/10 01:14:30;;;;;;;4.85;3.05;;;7.30;99.90;;;;;;4929093;29;20185;-80
2022/10/10 01:17:03;;;;;;;4.30;3.03;;;7.30;99.90;;;;;;4946287;28;20039;-82
2022/10/10 01:20:02;;;;;;;6.18;3.28;;;7.30;99.90;;;;;;4912673;29;20099;-81
2022/10/10 01:22:53;;;;;;;6.28;3.55;;;7.30;99.90;;;;;;4932630;29;20050;-80
2022/10/10 01:25:58;;;;;;;5.30;3.03;;;7.20;99.90;;;;;;4933298;29;20097;-80
2022/10/10 01:28:48;;;;;;;4.25;2.90;;;7.20;99.90;;;;;;4942181;28;20409;-80
2022/10/10 01:31:16;;;;;;;3.40;3.00;;;7.20;99.90;;;;;;4924898;29;20071;-81
2022/10/10 01:34:02;;;;;;;8.98;3.72;;;7.20;99.90;;;;;;4929632;29;20078;-80
2022/10/10 01:36:53;;;;;;;6.30;3.45;;;7.20;99.90;;;;;;4930240;29;20453;-81
2022/10/10 01:39:25;;;;;;;6.70;3.47;;;7.30;99.90;;;;;;4932316;29;20567;-82
2022/10/10 01:42:07;;;;;;;6.25;3.08;;;7.30;99.90;;;;;;4942478;28;20415;-81
2022/10/10 01:44:33;;;;;;;6.47;2.97;;;7.40;99.90;;;;;;4946464;28;20515;-80
2022/10/10 01:46:58;;;;;;;6.95;3.30;;;7.60;99.90;;;;;;4913519;29;20043;-80
2022/10/10 01:49:29;;;;;;;3.97;2.38;;;7.60;99.90;;;;;;4932356;29;20138;-80
2022/10/10 01:52:14;;;;;;;7.28;3.03;;;7.70;99.90;;;;;;4912526;29;20501;-80
2022/10/10 01:55:00;;;;;;;7.25;3.33;;;7.80;99.90;;;;;;4932217;29;20047;-82
2022/10/10 01:57:39;;;;;;;;;;;7.90;99.90;;;;;;4928634;29;20046;-80
2022/10/10 02:00:07;;;;;;;5.18;3.03;;;7.90;99.90;;;;;;4898877;29;19922;-80
2022/10/10 02:02:47;;;;;;;4.95;3.20;;;7.90;99.90;;;;;;4929259;29;20072;-80
2022/10/10 02:05:19;;;;;;;4.43;2.88;;;7.90;99.90;;;;;;4917620;29;20031;-81
2022/10/10 02:08:03;;;;;;;5.25;3.15;;;8.00;99.90;;;;;;4929085;29;20047;-80
2022/10/10 02:10:32;;;;;;;4.65;2.85;;;8.00;99.90;;;;;;4945673;28;20088;-80
2022/10/10 02:13:01;;;;;;;4.95;2.78;;;8.00;99.90;;;;;;4933343;29;20054;-80
2022/10/10 02:15:32;;;;;;;5.32;3.80;;;8.00;99.90;;;;;;4913137;29;20050;-80
2022/10/10 02:18:00;;;;;;;8.88;3.30;;;8.00;99.90;;;;;;4917918;29;20118;-80
2022/10/10 02:20:27;;;;;;;4.82;3.25;;;8.00;99.90;;;;;;4922059;29;20514;-80
2022/10/10 02:22:54;;;;;;;4.47;3.53;;;8.10;99.90;;;;;;4950603;28;20079;-80
2022/10/10 02:25:25;;;;;;;5.28;3.47;;;8.10;99.90;;;;;;4934419;29;20043;-80
2022/10/10 02:28:16;;;;;;;6.43;3.55;;;8.10;99.90;;;;;;4895503;29;20052;-80
2022/10/10 02:30:45;;;;;;;5.10;3.22;;;8.20;99.90;;;;;;4919445;29;20595;-80
2022/10/10 02:33:14;;;;;;;9.85;3.83;;;8.20;99.90;;;;;;4942895;28;20071;-80
2022/10/10 02:35:42;;;;;;;3.78;2.92;;;8.10;99.90;;;;;;4917542;29;20036;-80
2022/10/10 02:38:11;;;;;;;11.23;3.30;;;8.10;99.90;;;;;;4951961;28;20050;-80
2022/10/10 02:40:40;;;;;;;7.78;3.53;;;8.20;99.90;;;;;;4935334;29;20055;-80
2022/10/10 02:43:07;;;;;;;7.47;3.65;;;8.20;99.90;;;;;;4931995;29;20036;-82
2022/10/10 02:45:33;;;;;;;5.45;3.40;;;8.20;99.90;;;;;;4949614;28;20044;-80
2022/10/10 02:48:02;;;;;;;6.28;3.50;;;8.20;99.90;;;;;;4941474;28;20070;-80
2022/10/10 02:50:29;;;;;;;4.68;3.40;;;8.20;99.90;;;;;;4915559;29;20485;-81
2022/10/10 02:52:55;;;;;;;9.52;3.55;;;8.20;99.90;;;;;;4898625;29;20452;-80
2022/10/10 02:55:20;;;;;;;6.05;3.30;;;8.20;99.90;;;;;;4931936;29;20051;-80
2022/10/10 02:57:46;;;;;;;7.38;3.60;;;8.20;99.90;;;;;;4925971;29;20036;-81
2022/10/10 03:00:12;;;;;;;4.95;3.38;;;8.20;99.90;;;;;;4915900;29;20213;-81
2022/10/10 03:02:38;;;;;;;7.90;3.92;;;8.20;99.90;;;;;;4912162;29;20047;-81
2022/10/10 03:05:04;;;;;;;5.63;3.80;;;8.20;99.90;;;;;;4944331;28;20500;-80
2022/10/10 03:07:29;;;;;;;6.22;3.78;;;8.20;99.90;;;;;;4928259;29;20050;-80
2022/10/10 03:09:55;;;;;;;6.70;3.80;;;8.20;99.90;;;;;;4944768;28;20058;-80
2022/10/10 03:12:21;;;;;;;5.82;4.28;;;8.20;99.90;;;;;;4941281;28;20048;-80
2022/10/10 03:14:47;;;;;;;6.80;3.42;;;8.20;99.90;;;;;;4930257;29;20039;-81
2022/10/10 03:17:12;;;;;;;6.50;3.58;;;8.30;99.90;;;;;;4925963;29;20163;-80
2022/10/10 03:19:38;;;;;;;4.88;3.28;;;8.20;99.90;;;;;;4944830;28;20039;-80
2022/10/10 03:22:03;;;;;;;9.65;3.50;;;8.20;99.90;;;;;;4943156;28;20047;-80
2022/10/10 03:24:29;;;;;;;6.90;3.83;;;8.20;99.90;;;;;;4926759;29;20036;-81
2022/10/10 03:26:54;;;;;;;6.57;3.60;;;8.20;99.90;;;;;;4929089;29;20059;-80
2022/10/10 03:29:20;;;;;;;5.30;4.80;;;8.20;99.90;;;;;;4923777;29;20516;-81
2022/10/10 03:31:46;;;;;;;5.70;3.35;;;8.20;99.90;;;;;;4912006;29;20040;-80
2022/10/10 03:34:11;;;;;;;9.10;3.95;;;8.20;99.90;;;;;;4927589;29;20060;-82
2022/10/10 03:36:37;;;;;;;7.35;3.80;;;8.30;99.90;;;;;;4945621;28;20527;-80
2022/10/10 03:39:03;;;;;;;7.57;4.10;;;8.30;99.90;;;;;;4893070;29;20574;-80
2022/10/10 03:41:28;;;;;;;7.20;3.90;;;8.30;99.90;;;;;;4945439;28;20039;-81
2022/10/10 03:43:54;;;;;;;5.57;4.07;;;8.30;99.90;;;;;;4943851;28;20381;-80
2022/10/10 03:46:20;;;;;;;9.25;4.47;;;8.20;99.90;;;;;;4942607;28;20051;-81
2022/10/10 03:48:46;;;;;;;5.50;4.13;;;8.30;99.90;;;;;;4946117;28;20533;-81
2022/10/10 03:51:11;;;;;;;4.70;3.33;;;8.30;99.90;;;;;;4948689;28;20050;-81
2022/10/10 03:53:37;;;;;;;5.95;3.90;;;8.30;99.90;;;;;;4917899;29;20054;-81
2022/10/10 03:56:03;;;;;;;7.18;4.43;;;8.30;99.90;;;;;;4898763;29;20039;-80
2022/10/10 03:58:29;;;;;;;11.48;4.63;;;8.30;99.90;;;;;;4956382;28;20039;-80
2022/10/10 04:00:56;;;;;;;9.10;4.13;;;8.20;99.90;;;;;;4934219;29;20095;-82
2022/10/10 04:03:23;;;;;;;6.93;4.25;;;8.30;99.90;;;;;;4914754;29;20119;-80
2022/10/10 04:05:49;;;;;;;6.95;4.28;;;8.30;99.90;;;;;;4929070;29;20065;-82
2022/10/10 04:08:15;;;;;;;8.93;4.40;;;8.30;99.90;;;;;;4931196;29;20504;-80
2022/10/10 04:10:40;;;;;;;9.35;4.65;;;8.30;99.90;;;;;;4927266;29;20051;-80
2022/10/10 04:13:06;;;;;;;9.38;4.72;;;8.30;99.90;;;;;;4913042;29;20555;-80
2022/10/10 04:15:31;;;;;;;8.13;4.15;;;8.30;99.90;;;;;;4924766;29;20131;-82
2022/10/10 04:17:58;;;;;;;6.93;4.35;;;8.30;99.90;;;;;;4926149;29;20123;-81
2022/10/10 04:20:24;;;;;;;7.47;4.53;;;8.30;99.90;;;;;;4909719;29;20079;-82
2022/10/10 04:22:50;;;;;;;7.68;4.75;;;8.30;99.90;;;;;;4908569;29;20040;-81
2022/10/10 04:25:15;;;;;;;6.03;4.47;;;8.30;99.90;;;;;;4942699;28;20389;-81
2022/10/10 04:27:42;;;;;;;8.70;4.25;;;8.30;99.90;;;;;;4928095;29;20047;-80
2022/10/10 04:30:09;;;;;;;8.55;4.45;;;8.30;99.90;;;;;;4907983;29;20052;-80
2022/10/10 04:32:35;;;;;;;9.65;4.20;;;8.30;99.90;;;;;;4926373;29;20131;-80
2022/10/10 04:35:01;;;;;;;9.63;4.70;;;8.20;99.90;;;;;;4941934;28;20128;-80
2022/10/10 04:37:27;;;;;;;6.63;4.53;;;8.30;99.90;;;;;;4945854;28;20040;-81
2022/10/10 04:39:52;;;;;;;10.55;4.80;;;8.20;99.90;;;;;;4921199;29;20066;-82
2022/10/10 04:42:18;;;;;;;7.47;4.53;;;8.30;99.90;;;;;;4943664;28;20741;-81
2022/10/10 04:44:43;;;;;;;8.57;4.38;;;8.20;99.90;;;;;;4944716;28;20043;-82
2022/10/10 04:47:09;;;;;;;7.72;4.30;;;8.20;99.90;;;;;;4944243;28;20040;-83
2022/10/10 04:49:34;;;;;;;5.70;4.50;;;8.20;99.90;;;;;;4947175;28;20051;-83
2022/10/10 04:52:00;;;;;;;6.20;4.47;;;8.20;99.90;;;;;;4946191;28;20072;-83
2022/10/10 04:54:26;;;;;;;7.75;4.93;;;8.20;99.90;;;;;;4918771;29;20038;-83
2022/10/10 04:56:51;;;;;;;9.48;4.50;;;8.20;99.90;;;;;;4932424;29;20035;-82
2022/10/10 04:59:17;;;;;;;10.77;4.50;;;8.20;99.90;;;;;;4949235;28;20073;-82
2022/10/10 05:01:42;;;;;;;7.93;5.03;;;8.20;99.90;;;;;;4944619;28;20043;-81
2022/10/10 05:04:08;;;;;;;6.85;5.00;;;8.20;99.90;;;;;;4936082;28;20420;-81
2022/10/10 05:06:34;;;;;;;6.75;4.18;;;8.20;99.90;;;;;;4916239;29;20048;-82
2022/10/10 05:08:59;;;;;;;7.00;4.53;;;8.20;99.90;;;;;;4920385;29;20561;-81
2022/10/10 05:11:25;;;;;;;9.40;4.60;;;8.10;99.90;;;;;;4928739;29;20131;-81
2022/10/10 05:13:51;;;;;;;6.70;4.82;;;8.10;99.90;;;;;;4929915;29;20046;-81
2022/10/10 05:16:16;;;;;;;9.65;5.20;;;8.10;99.90;;;;;;4927652;29;20035;-80
2022/10/10 05:18:42;;;;;;;9.23;5.80;;;8.10;99.90;;;;;;4930147;29;20111;-80
2022/10/10 05:21:10;;;;;;;9.90;4.88;;;8.00;99.90;;;;;;4895204;29;20035;-80
2022/10/10 05:23:37;;;;;;;9.38;5.38;;;8.10;99.90;;;;;;4943573;28;20048;-82
2022/10/10 05:26:03;;;;;;;7.97;5.13;;;8.00;99.90;;;;;;4944029;28;20040;-82
2022/10/10 05:28:29;;;;;;;7.50;4.85;;;8.00;99.90;;;;;;4934057;29;20492;-80
2022/10/10 05:30:55;;;;;;;7.57;4.80;;;8.00;99.90;;;;;;4925640;29;20047;-78
2022/10/10 05:33:20;;;;;;;7.53;5.38;;;8.00;99.90;;;;;;4927376;29;20044;-78
2022/10/10 05:35:46;;;;;;;11.05;5.07;;;8.00;99.90;;;;;;4927850;29;20040;-80
2022/10/10 05:38:11;;;;;;;10.02;5.68;;;8.00;99.90;;;;;;4927347;29;20114;-81
2022/10/10 05:40:41;;;;;;;5.32;4.63;;;8.00;99.90;;;;;;4917870;29;20043;-84
2022/10/10 05:43:06;;;;;;;6.70;4.80;;;8.00;99.90;;;;;;4918621;29;20700;-83
2022/10/10 05:45:32;;;;;;;10.30;5.20;;;8.00;99.90;;;;;;4918215;29;20044;-81
2022/10/10 05:47:58;;;;;;;9.40;5.35;;;8.00;99.90;;;;;;4945057;28;20074;-81
2022/10/10 05:50:31;;;;;;;9.90;5.03;;;8.00;99.90;;;;;;4921084;29;20254;-83
2022/10/10 05:52:57;;;;;;;10.85;5.28;;;8.00;99.90;;;;;;4922742;29;20062;-82
2022/10/10 05:55:23;;;;;;;13.55;5.95;;;8.00;99.90;;;;;;4892706;29;20040;-82
2022/10/10 05:57:49;;;;;;;9.25;5.60;;;8.00;99.90;;;;;;4899027;29;20140;-83
2022/10/10 06:00:14;;;;;;;8.10;5.47;;;8.00;99.90;;;;;;4909287;29;20035;-83
2022/10/10 06:02:40;;;;;;;13.30;5.53;;;8.00;99.90;;;;;;4907234;29;20393;-80
2022/10/10 06:05:06;;;;;;;7.85;5.80;;;8.10;99.90;;;;;;4941497;28;20043;-81
2022/10/10 06:07:31;;;;;;;14.23;6.63;;;8.10;99.90;;;;;;4922943;29;20066;-82
2022/10/10 06:09:57;;;;;;;6.82;5.25;;;8.20;99.90;;;;;;4921828;29;20051;-80
2022/10/10 06:12:22;;;;;;;8.45;5.50;;;8.10;99.90;;;;;;4934257;28;20483;-81
2022/10/10 06:14:48;;;;;;;10.23;6.07;;;8.20;99.90;;;;;;4922359;29;20040;-81
2022/10/10 06:17:13;;;;;;;13.20;6.07;;;8.20;99.90;;;;;;4922629;29;20539;-82
2022/10/10 06:19:39;;;;;;;9.85;6.10;;;8.30;99.90;;;;;;4938551;28;20583;-80
2022/10/10 06:22:04;;;;;;;11.15;5.85;;;8.30;99.90;;;;;;4927973;29;20051;-81
2022/10/10 06:24:30;;;;;;;9.95;4.95;;;8.30;99.90;;;;;;4906688;29;20411;-81
2022/10/10 06:26:56;;;;;;;11.65;5.30;;;8.30;99.90;;;;;;4942567;28;20044;-81
2022/10/10 06:29:21;;;;;;;8.65;5.07;;;8.30;99.90;;;;;;4938084;28;20068;-81
2022/10/10 06:31:47;;;;;;;6.30;4.97;;;8.40;99.90;;;;;;4922056;29;20052;-81
2022/10/10 06:34:13;;;;;;;10.27;5.45;;;8.50;99.90;;;;;;4939337;28;20086;-82
2022/10/10 06:36:38;;;;;;;8.85;5.05;;;8.60;99.90;;;;;;4924921;29;20040;-82
2022/10/10 06:39:04;;;;;;;6.75;5.07;;;8.60;99.90;;;;;;4940351;28;20036;-81
2022/10/10 06:41:29;;;;;;;7.18;5.22;;;8.70;99.90;;;;;;4909647;29;20087;-81
2022/10/10 06:43:55;;;;;;;10.93;4.80;;;8.80;99.90;;;;;;4938325;28;20043;-82
2022/10/10 06:46:20;;;;;;;7.32;5.22;;;8.80;99.90;;;;;;4905594;29;20088;-81
2022/10/10 06:48:46;;;;;;;5.75;4.70;;;8.80;99.90;;;;;;4910646;29;20032;-82
2022/10/10 06:51:14;;;;;;;7.22;5.00;;;8.90;99.90;;;;;;4907699;29;20040;-82
2022/10/10 06:53:40;;;;;;;6.53;5.20;;;9.00;99.90;;;;;;4939118;28;20119;-82
2022/10/10 06:56:06;;;;;;;8.82;5.15;;;9.00;99.90;;;;;;4940745;28;20039;-82
2022/10/10 06:58:32;;;;;;;6.78;5.32;;;9.40;99.90;;;;;;4927876;29;20040;-81
2022/10/10 07:01:00;;;;;;;7.63;5.43;;;9.10;99.90;;;;;;4930186;29;20043;-81
2022/10/10 07:03:27;;;;;;;8.25;5.00;;;9.20;99.90;;;;;;4926739;29;20047;-84
2022/10/10 07:05:56;;;;;;;8.40;4.93;;;9.30;99.90;;;;;;4922704;29;20155;-82
2022/10/10 07:08:23;;;;;;;9.65;4.70;;;9.30;99.90;;;;;;4943065;28;20051;-82
2022/10/10 07:10:48;;;;;;;7.80;4.70;;;9.50;99.90;;;;;;4943925;28;20054;-84
2022/10/10 07:13:14;;;;;;;7.68;5.43;;;9.40;99.90;;;;;;4940169;28;20040;-84
2022/10/10 07:15:40;;;;;;;10.02;5.07;;;9.50;99.90;;;;;;4928393;29;20243;-83
2022/10/10 07:18:06;;;;;;;6.57;4.63;;;9.50;99.90;;;;;;4941755;28;20123;-83
2022/10/10 07:20:33;;;;;;;7.25;5.00;;;9.50;99.90;;;;;;4941919;28;20032;-84
2022/10/10 07:22:58;;;;;;;7.75;4.63;;;9.60;99.90;;;;;;4908795;29;20051;-82
2022/10/10 07:26:12;;;;;;;10.73;5.13;;;9.50;99.90;;;;;;4926904;29;20043;-86
2022/10/10 07:28:38;;;;;;;9.60;5.72;;;9.60;99.90;;;;;;4929644;29;20039;-83
2022/10/10 07:31:17;;;;;;;9.63;5.60;;;9.60;99.90;;;;;;4922297;29;20036;-84
2022/10/10 07:33:49;;;;;;;7.38;5.15;;;9.60;99.90;;;;;;4913185;29;20532;-84
2022/10/10 07:36:18;;;;;;;8.52;5.93;;;9.60;99.90;;;;;;4925669;29;20039;-84
2022/10/10 07:38:43;;;;;;;12.65;5.50;;;9.60;99.90;;;;;;4924396;29;20035;-84
2022/10/10 07:41:14;;;;;;;8.10;5.10;;;9.60;99.90;;;;;;4927195;29;20132;-86
2022/10/10 07:43:41;;;;;;;6.00;5.13;;;9.80;99.90;;;;;;4909902;29;20091;-82
2022/10/10 07:46:17;;;;;;;5.40;4.78;;;9.80;99.90;;;;;;4911903;29;20040;-83
2022/10/10 07:48:43;;;;;;;7.55;5.50;;;9.80;99.90;;;;;;4896791;29;20048;-84
2022/10/10 07:51:11;;;;;;;8.43;6.28;;;9.90;99.90;;;;;;4939894;28;20177;-83
2022/10/10 07:53:37;;;;;;;9.02;5.25;;;10.00;99.90;;;;;;4940354;28;20122;-82
2022/10/10 07:56:07;;;;;;;9.45;5.03;;;10.10;99.90;;;;;;4940173;28;20123;-82
2022/10/10 07:58:34;;;;;;;9.30;4.93;;;10.20;99.90;;;;;;4921294;29;20504;-84
2022/10/10 08:01:11;;;;;;;15.70;5.50;;;10.30;99.90;;;;;;4936374;28;20051;-83
2022/10/10 08:03:37;;;;;;;10.15;5.30;;;10.30;99.90;;;;;;4934209;28;20043;-83
2022/10/10 08:06:05;;;;;;;9.70;5.20;;;10.40;99.90;;;;;;4901603;29;20062;-82
2022/10/10 08:12:13;;;;;;;5.95;4.88;;;10.70;99.90;;;;;;4919140;29;20054;-83
2022/10/10 08:14:38;;;;;;;6.70;5.43;;;10.60;99.90;;;;;;4907597;29;20055;-83
2022/10/10 08:17:04;;;;;;;6.03;4.90;;;10.70;99.90;;;;;;4919708;29;20036;-83
2022/10/10 08:19:30;;;;;;;6.40;5.50;;;10.70;99.90;;;;;;4918925;29;20122;-83
2022/10/10 08:21:55;;;;;;;7.43;5.10;;;10.90;99.90;;;;;;4936798;28;20063;-82
2022/10/10 08:24:21;;;;;;;13.13;5.22;;;10.90;99.90;;;;;;4938031;28;20051;-82
2022/10/10 08:26:46;;;;;;;8.45;4.53;;;11.00;99.90;;;;;;4921166;29;20044;-83
2022/10/10 08:29:12;;;;;;;7.15;5.50;;;11.10;99.90;;;;;;4938582;28;20543;-82
2022/10/10 08:31:38;;;;;;;10.27;5.47;;;11.20;99.90;;;;;;4924529;29;20044;-82
2022/10/10 08:34:04;;;;;;;6.30;4.70;;;11.30;99.90;;;;;;4905142;29;20099;-82
2022/10/10 08:36:29;;;;;;;7.28;5.00;;;11.40;99.90;;;;;;4922694;29;20044;-83
2022/10/10 08:38:59;;;;;;;7.13;5.03;;;11.60;99.90;;;;;;4937707;28;20190;-83
2022/10/10 08:41:54;;;;;;;7.32;5.57;;;11.70;99.90;;;;;;4891470;29;20039;-82
2022/10/10 08:44:25;;;;;;;9.63;5.30;;;11.90;99.90;;;;;;4904203;29;20075;-82
2022/10/10 08:47:09;;;;;;;7.63;5.13;;;12.00;99.90;;;;;;4938786;28;20048;-82
2022/10/10 08:49:38;;;;;;;9.45;5.10;;;12.20;99.90;;;;;;4918415;29;20044;-83
2022/10/10 08:52:29;;;;;;;8.52;4.90;;;12.40;99.90;;;;;;4920082;29;20078;-83
2022/10/10 08:54:57;;;;;;;10.02;5.28;;;12.50;99.90;;;;;;4940227;28;20500;-82
2022/10/10 08:57:30;;;;;;;10.00;5.28;;;12.60;99.90;;;;;;4940705;28;20739;-82
2022/10/10 09:00:01;;;;;;;13.52;5.55;;;12.60;99.90;;;;;;4912185;29;20097;-82
2022/10/10 09:02:40;;;;;;;11.63;5.82;;;13.30;99.90;;;;;;4925800;29;20706;-82
2022/10/10 09:05:15;;;;;;;6.75;5.03;;;12.80;99.90;;;;;;4908808;29;20094;-82
2022/10/10 09:07:59;;;;;;;7.85;5.00;;;12.90;99.90;;;;;;4922893;29;20132;-82
2022/10/10 09:10:39;;;;;;;7.60;4.95;;;12.90;99.90;;;;;;4926953;29;20051;-82
2022/10/10 09:13:13;;;;;;;6.38;4.80;;;13.00;99.90;;;;;;4924412;29;20046;-83
2022/10/10 09:15:50;;;;;;;9.25;5.20;;;13.10;99.90;;;;;;4940448;28;20043;-83
2022/10/10 09:18:27;;;;;;;10.38;5.70;;;13.10;99.90;;;;;;4897493;29;20130;-82
2022/10/10 09:21:05;;;;;;;14.27;6.28;;;13.20;99.90;;;;;;4940149;28;20055;-84
2022/10/10 09:23:59;;;;;;;9.73;5.45;;;13.30;99.90;;;;;;4906660;29;20039;-82
2022/10/10 09:26:29;;;;;;;13.38;6.40;;;13.60;99.90;;;;;;4911257;29;20047;-83
2022/10/10 09:29:24;;;;;;;11.13;5.07;;;13.60;99.90;;;;;;4898548;29;20374;-83
2022/10/10 09:31:55;;;;;;;10.55;5.50;;;13.70;99.90;;;;;;4909179;29;20075;-83
2022/10/10 09:34:40;;;;;;;8.27;5.13;;;13.80;99.90;;;;;;4891080;29;21232;-86
2022/10/10 09:37:14;;;;;;;9.10;4.63;;;13.90;99.90;;;;;;4907754;29;20539;-84
2022/10/10 09:39:51;;;;;;;11.00;5.60;;;14.10;99.90;;;;;;4909922;29;20414;-85
2022/10/10 09:42:28;;;;;;;11.13;4.55;;;14.20;99.90;;;;;;4924660;29;20050;-85
2022/10/10 09:44:53;;;;;;;6.95;4.53;;;14.30;99.90;;;;;;4944084;28;20044;-85
2022/10/10 09:47:19;;;;;;;12.80;5.05;;;14.40;99.90;;;;;;4919880;29;20048;-86
2022/10/10 09:49:45;;;;;;;9.98;4.97;;;14.40;99.90;;;;;;4891999;29;20412;-86
2022/10/10 09:52:28;;;;;;;6.70;5.00;;;14.40;99.90;;;;;;4924424;29;20039;-84
2022/10/10 09:55:13;;;;;;;10.60;4.50;;;14.50;99.90;;;;;;4924491;29;20707;-85
2022/10/10 09:57:41;;;;;;;8.00;5.13;;;14.50;99.90;;;;;;4889239;29;20044;-86
2022/10/10 10:00:25;;;;;;;8.98;4.45;;;14.50;99.90;;;;;;4920496;29;20136;-85
2022/10/10 10:03:08;;;;;;;13.13;5.90;;;14.50;99.90;;;;;;4897170;29;20043;-85
2022/10/10 10:05:34;;;;;;;7.93;6.00;;;14.60;99.90;;;;;;4896613;29;20127;-86
2022/10/10 10:08:00;;;;;;;12.35;6.57;;;14.60;99.90;;;;;;4906256;29;20040;-86
2022/10/10 10:10:26;;;;;;;9.13;5.72;;;14.60;99.90;;;;;;4898068;29;20087;-85
2022/10/10 10:12:53;;;;;;;5.03;4.43;;;14.60;99.90;;;;;;4927084;29;20047;-85
2022/10/10 10:15:28;;;;;;;7.05;4.82;;;14.70;99.90;;;;;;4938807;28;20122;-86
2022/10/10 10:18:16;;;;;;;10.35;5.38;;;14.90;99.90;;;;;;4925442;29;20055;-85
2022/10/10 10:20:47;;;;;;;10.85;5.18;;;14.90;99.90;;;;;;4925815;29;20048;-86
2022/10/10 10:24:01;;;;;;;9.90;4.95;;;15.00;99.90;;;;;;4909300;29;20036;-85
2022/10/10 10:26:43;;;;;;;8.57;4.30;;;15.00;99.90;;;;;;4902244;29;20079;-86
2022/10/10 10:29:27;;;;;;;5.32;4.40;;;15.20;99.90;;;;;;4922026;29;20139;-87
2022/10/10 10:32:11;;;;;;;11.15;4.70;;;15.40;99.90;;;;;;4897181;29;20047;-86
2022/10/10 10:34:56;;;;;;;8.45;5.63;;;15.50;99.90;;;;;;4909475;29;20047;-84
2022/10/10 10:37:29;;;;;;;9.77;4.32;;;15.70;99.90;;;;;;4930055;29;20036;-85
2022/10/10 10:40:08;;;;;;;8.98;4.63;;;15.90;99.90;;;;;;4935203;29;20044;-85
2022/10/10 10:42:45;;;;;;;12.60;6.00;;;16.20;99.90;;;;;;4931355;29;20416;-85
2022/10/10 10:45:36;;;;;;;8.85;5.05;;;16.50;99.90;;;;;;4959839;28;20047;-84
2022/10/10 10:48:14;;;;;;;8.05;4.35;;;16.50;99.90;;;;;;4928942;29;20095;-85
2022/10/10 10:50:53;;;;;;;10.70;4.38;;;16.40;99.90;;;;;;4928608;29;20572;-86
2022/10/10 10:53:44;;;;;;;8.10;4.68;;;16.40;99.90;;;;;;4917252;29;20453;-84
2022/10/10 10:56:29;;;;;;;7.78;4.25;;;16.50;99.90;;;;;;4879870;29;20136;-83
2022/10/10 10:59:24;;;;;;;11.15;4.53;;;16.50;99.90;;;;;;4916057;29;20103;-86
2022/10/10 11:02:05;;;;;;;11.00;5.70;;;16.40;99.90;;;;;;4929495;29;20047;-85
2022/10/10 11:05:03;;;;;;;6.07;4.10;;;16.40;99.90;;;;;;4912808;29;20198;-88
2022/10/10 11:07:37;;;;;;;10.05;4.78;;;16.30;99.90;;;;;;4860965;29;20055;-84
2022/10/10 11:10:16;;;;;;;8.20;4.47;;;16.20;99.90;;;;;;4930187;29;20040;-86
2022/10/10 11:12:42;;;;;;;8.73;4.43;;;16.10;99.90;;;;;;4928809;29;20083;-85
2022/10/10 11:15:25;;;;;;;9.90;4.50;;;16.00;99.90;;;;;;4926159;29;20043;-85
2022/10/10 11:18:11;;;;;;;8.68;4.82;;;15.90;99.90;;;;;;4943449;28;20039;-85
2022/10/10 11:20:44;;;;;;;8.23;4.47;;;15.90;99.90;;;;;;4928483;29;20040;-86
2022/10/10 11:23:24;;;;;;;13.10;4.85;;;15.70;99.90;;;;;;4928174;29;20040;-84
2022/10/10 11:26:05;;;;;;;13.52;5.43;;;15.60;99.90;;;;;;4927465;29;20043;-86
2022/10/10 11:28:43;;;;;;;12.75;5.35;;;15.50;99.90;;;;;;4931576;29;20528;-85
2022/10/10 11:31:17;;;;;;;6.63;4.72;;;15.30;99.90;;;;;;4931384;29;20048;-84
2022/10/10 11:33:51;;;;;;;9.77;4.80;;;15.30;99.90;;;;;;4946413;28;20416;-85
2022/10/10 11:36:21;;;;;;;6.55;5.00;;;15.20;99.90;;;;;;4941775;28;20515;-86
2022/10/10 11:38:55;;;;;;;13.27;5.93;;;15.10;99.90;;;;;;4932026;29;20044;-84
2022/10/10 11:41:52;;;;;;;8.13;5.75;;;15.00;99.90;;;;;;4932201;29;20638;-86
2022/10/10 11:44:22;;;;;;;10.65;4.68;;;14.90;99.90;;;;;;4913567;29;20145;-86
2022/10/10 11:47:07;;;;;;;8.77;5.90;;;14.90;99.90;;;;;;4930962;29;20036;-85
2022/10/10 11:49:59;;;;;;;10.07;5.68;;;14.80;99.90;;;;;;4911062;29;20039;-85
2022/10/10 11:52:45;;;;;;;8.98;5.07;;;14.70;99.90;;;;;;4927698;29;20044;-86
2022/10/10 11:55:25;;;;;;;9.98;5.05;;;14.70;99.90;;;;;;4912415;29;20677;-84
2022/10/10 11:58:06;;;;;;;15.40;7.00;;;14.70;99.90;;;;;;4915086;29;20123;-85
2022/10/10 12:00:44;;;;;;;8.75;5.07;;;14.70;99.90;;;;;;4928857;29;20043;-85
2022/10/10 12:03:10;;;;;;;9.93;4.90;;;14.70;99.90;;;;;;4943234;28;20102;-85
2022/10/10 12:05:39;;;;;;;7.22;4.90;;;14.70;99.90;;;;;;4923496;29;20531;-84
2022/10/10 12:08:30;;;;;;;9.35;5.22;;;14.70;99.90;;;;;;4911676;29;20043;-83
2022/10/10 12:11:12;;;;;;;12.10;5.95;;;14.70;99.90;;;;;;4941057;28;20193;-86
2022/10/10 12:13:44;;;;;;;11.85;6.00;;;14.70;99.90;;;;;;4900490;29;20453;-87
2022/10/10 12:16:15;;;;;;;10.02;5.30;;;14.60;99.90;;;;;;4922940;29;20040;-84
2022/10/10 12:19:04;;;;;;;12.20;5.35;;;14.60;99.90;;;;;;4911614;29;20047;-85
2022/10/10 12:21:31;;;;;;;13.27;5.70;;;14.60;99.90;;;;;;4942151;28;20051;-83
2022/10/10 12:24:14;;;;;;;16.13;5.85;;;14.60;99.90;;;;;;4908476;29;20039;-86
2022/10/10 12:26:55;;;;;;;10.05;5.40;;;14.50;99.90;;;;;;4939369;28;20043;-86
2022/10/10 12:29:41;;;;;;;9.48;5.32;;;14.50;99.90;;;;;;4910557;29;20043;-85
2022/10/10 12:32:13;;;;;;;15.40;6.35;;;14.50;99.90;;;;;;4927281;29;20456;-83
2022/10/10 12:35:01;;;;;;;9.25;5.97;;;14.40;99.90;;;;;;4923900;29;20500;-86
2022/10/10 12:37:34;;;;;;;18.42;8.57;;;14.10;99.90;;;;;;4929075;29;20044;-87
2022/10/10 12:40:06;;;;;;;13.60;6.88;;;14.30;99.90;;;;;;4927042;29;20040;-85
2022/10/10 12:42:31;;;;;;;13.95;6.57;;;14.30;99.90;;;;;;4939169;28;20811;-83
2022/10/10 12:44:57;;;;;;;10.30;6.40;;;14.20;99.90;;;;;;4911879;29;20071;-85
2022/10/10 12:47:43;;;;;;;12.55;7.30;;;14.20;99.90;;;;;;4910604;29;20032;-86
2022/10/10 12:50:21;;;;;;;13.43;8.27;;;14.10;99.90;;;;;;4899411;29;20043;-85
2022/10/10 12:52:49;;;;;;;13.38;7.55;;;14.10;99.90;;;;;;4925048;29;20054;-85
2022/10/10 12:55:49;;;;;;;11.95;7.63;;;14.10;99.90;;;;;;4928218;29;20042;-84
2022/10/10 12:58:19;;;;;;;13.82;7.28;;;14.10;99.90;;;;;;4940700;28;20121;-86
2022/10/10 13:00:46;;;;;;;19.75;7.68;;;14.00;99.90;;;;;;4926640;29;20047;-86
2022/10/10 13:03:25;;;;;;;10.07;7.30;;;14.00;99.90;;;;;;4906637;29;20042;-85
2022/10/10 13:05:52;;;;;;;12.90;7.75;;;14.00;99.90;;;;;;4939852;28;20440;-86
2022/10/10 13:08:23;;;;;;;15.70;7.65;;;14.00;99.90;;;;;;4942649;28;20059;-86
2022/10/10 13:11:04;;;;;;;14.38;7.97;;;14.00;99.90;;;;;;4928241;29;20047;-85
2022/10/10 13:13:29;;;;;;;13.93;6.93;;;14.10;99.90;;;;;;4941998;28;20187;-84
2022/10/10 13:16:04;;;;;;;13.48;7.78;;;14.00;99.90;;;;;;4936218;28;20126;-86